sensor_id;sensor_type;location;lat;lon;timestamp;pressure;altitude;pressure_sealevel;temperature;humidity
12799;BME280;19250;42.646;26.980;2023-11-19T00:00:35;98137.22;;;4.31;100.00
12799;BME280;19250;42.646;26.980;2023-11-19T00:03:03;98139.91;;;4.22;100.00
12799;BME280;19250;42.646;26.980;2023-11-19T00:05:31;98166.28;;;4.22;100.00
12799;BME280;19250;42.646;26.980;2023-11-19T00:07:58;98170.44;;;4.15;100.00
12799;BME280;19250;42.646;26.980;2023-11-19T00:10:27;98154.75;;;4.32;100.00
12799;BME280;19250;42.646;26.980;2023-11-19T00:12:56;98166.13;;;4.23;100.00
12799;BME280;19250;42.646;26.980;2023-11-19T00:15:23;98170.56;;;4.32;100.00
12799;BME280;19250;42.646;26.980;2023-11-19T00:17:52;98179.31;;;4.23;100.00
12799;BME280;19250;42.646;26.980;2023-11-19T00:20:20;98188.06;;;4.24;100.00
12799;BME280;19250;42.646;26.980;2023-11-19T00:22:49;98172.50;;;4.11;100.00
12799;BME280;19250;42.646;26.980;2023-11-19T00:25:18;98192.38;;;4.15;100.00
12799;BME280;19250;42.646;26.980;2023-11-19T00:27:46;98207.22;;;4.16;100.00
12799;BME280;19250;42.646;26.980;2023-11-19T00:30:14;98198.34;;;4.36;100.00
12799;BME280;19250;42.646;26.980;2023-11-19T00:32:42;98191.13;;;4.29;100.00
12799;BME280;19250;42.646;26.980;2023-11-19T00:35:12;98225.97;;;4.42;100.00
12799;BME280;19250;42.646;26.980;2023-11-19T00:37:41;98246.53;;;4.29;100.00
12799;BME280;19250;42.646;26.980;2023-11-19T00:40:12;98244.75;;;4.49;100.00
12799;BME280;19250;42.646;26.980;2023-11-19T00:42:41;98246.41;;;4.30;100.00
12799;BME280;19250;42.646;26.980;2023-11-19T00:45:09;98218.91;;;4.43;100.00
12799;BME280;19250;42.646;26.980;2023-11-19T00:47:38;98264.16;;;4.48;100.00
12799;BME280;19250;42.646;26.980;2023-11-19T00:50:07;98267.63;;;4.29;100.00
12799;BME280;19250;42.646;26.980;2023-11-19T00:52:38;98274.69;;;4.28;100.00
12799;BME280;19250;42.646;26.980;2023-11-19T00:55:06;98268.31;;;4.40;100.00
12799;BME280;19250;42.646;26.980;2023-11-19T00:57:33;98271.13;;;4.39;100.00
12799;BME280;19250;42.646;26.980;2023-11-19T01:00:01;98288.63;;;4.30;100.00
12799;BME280;19250;42.646;26.980;2023-11-19T01:02:34;98271.69;;;4.43;100.00
12799;BME280;19250;42.646;26.980;2023-11-19T01:05:02;98280.56;;;4.42;100.00
12799;BME280;19250;42.646;26.980;2023-11-19T01:07:29;98313.34;;;4.49;100.00
12799;BME280;19250;42.646;26.980;2023-11-19T01:09:58;98304.47;;;4.40;100.00
12799;BME280;19250;42.646;26.980;2023-11-19T01:12:25;98327.50;;;4.48;100.00
12799;BME280;19250;42.646;26.980;2023-11-19T01:14:53;98325.84;;;4.37;100.00
12799;BME280;19250;42.646;26.980;2023-11-19T01:17:20;98297.22;;;4.42;100.00
12799;BME280;19250;42.646;26.980;2023-11-19T01:19:48;98303.50;;;4.60;100.00
12799;BME280;19250;42.646;26.980;2023-11-19T01:22:16;98325.88;;;4.85;100.00
12799;BME280;19250;42.646;26.980;2023-11-19T01:24:44;98334.63;;;4.76;100.00
12799;BME280;19250;42.646;26.980;2023-11-19T01:27:13;98357.28;;;4.88;100.00
12799;BME280;19250;42.646;26.980;2023-11-19T01:29:40;98348.41;;;4.89;100.00
12799;BME280;19250;42.646;26.980;2023-11-19T01:32:08;98360.06;;;4.96;100.00
12799;BME280;19250;42.646;26.980;2023-11-19T01:34:36;98255.56;;;4.46;100.00
12799;BME280;19250;42.646;26.980;2023-11-19T01:37:03;98365.78;;;5.01;100.00
12799;BME280;19250;42.646;26.980;2023-11-19T01:39:31;98354.50;;;4.99;100.00
12799;BME280;19250;42.646;26.980;2023-11-19T01:41:58;98373.25;;;4.96;100.00
12799;BME280;19250;42.646;26.980;2023-11-19T01:44:26;98368.69;;;4.98;100.00
12799;BME280;19250;42.646;26.980;2023-11-19T01:46:53;98384.78;;;5.05;100.00
12799;BME280;19250;42.646;26.980;2023-11-19T01:49:21;98377.16;;;5.02;100.00
12799;BME280;19250;42.646;26.980;2023-11-19T01:51:48;98381.88;;;5.17;100.00
12799;BME280;19250;42.646;26.980;2023-11-19T01:54:17;98389.28;;;5.04;100.00
12799;BME280;19250;42.646;26.980;2023-11-19T01:56:44;98385.06;;;5.02;100.00
12799;BME280;19250;42.646;26.980;2023-11-19T01:59:12;98394.84;;;5.01;100.00
12799;BME280;19250;42.646;26.980;2023-11-19T02:01:42;98381.75;;;5.09;100.00
12799;BME280;19250;42.646;26.980;2023-11-19T02:04:09;98405.38;;;5.11;100.00
12799;BME280;19250;42.646;26.980;2023-11-19T02:06:40;98343.78;;;4.72;100.00
12799;BME280;19250;42.646;26.980;2023-11-19T02:09:09;98407.88;;;4.93;100.00
12799;BME280;19250;42.646;26.980;2023-11-19T02:11:36;98399.28;;;5.01;100.00
12799;BME280;19250;42.646;26.980;2023-11-19T02:14:05;98408.59;;;4.85;100.00
12799;BME280;19250;42.646;26.980;2023-11-19T02:16:33;98400.38;;;4.88;100.00
12799;BME280;19250;42.646;26.980;2023-11-19T02:19:02;98403.00;;;4.69;100.00
12799;BME280;19250;42.646;26.980;2023-11-19T02:21:29;98402.16;;;4.78;100.00
12799;BME280;19250;42.646;26.980;2023-11-19T02:23:56;98410.78;;;4.90;100.00
12799;BME280;19250;42.646;26.980;2023-11-19T02:26:29;98402.31;;;4.86;100.00
12799;BME280;19250;42.646;26.980;2023-11-19T02:29:02;98390.22;;;4.84;100.00
12799;BME280;19250;42.646;26.980;2023-11-19T02:31:29;98404.97;;;4.77;100.00
12799;BME280;19250;42.646;26.980;2023-11-19T02:33:57;98387.53;;;4.65;100.00
12799;BME280;19250;42.646;26.980;2023-11-19T02:36:26;98406.22;;;4.82;100.00
12799;BME280;19250;42.646;26.980;2023-11-19T02:38:53;98402.16;;;4.78;100.00
12799;BME280;19250;42.646;26.980;2023-11-19T02:41:20;98398.44;;;4.90;100.00
12799;BME280;19250;42.646;26.980;2023-11-19T02:43:48;98400.38;;;4.88;100.00
12799;BME280;19250;42.646;26.980;2023-11-19T02:46:17;98397.03;;;4.86;100.00
12799;BME280;19250;42.646;26.980;2023-11-19T02:48:45;98391.59;;;4.69;100.00
12799;BME280;19250;42.646;26.980;2023-11-19T02:51:12;98396.19;;;4.67;100.00
12799;BME280;19250;42.646;26.980;2023-11-19T02:53:39;98397.13;;;4.56;100.00
12799;BME280;19250;42.646;26.980;2023-11-19T02:56:10;98389.06;;;4.48;100.00
12799;BME280;19250;42.646;26.980;2023-11-19T02:58:45;98392.00;;;4.55;100.00
12799;BME280;19250;42.646;26.980;2023-11-19T03:01:23;98392.81;;;4.65;100.00
12799;BME280;19250;42.646;26.980;2023-11-19T03:03:55;98395.66;;;4.82;100.00
12799;BME280;19250;42.646;26.980;2023-11-19T03:06:23;98391.47;;;4.99;100.00
12799;BME280;19250;42.646;26.980;2023-11-19T03:08:51;98401.91;;;4.91;100.00
12799;BME280;19250;42.646;26.980;2023-11-19T03:11:18;98398.31;;;4.92;100.00
12799;BME280;19250;42.646;26.980;2023-11-19T03:13:46;98393.72;;;4.94;100.00
12799;BME280;19250;42.646;26.980;2023-11-19T03:16:13;98376.91;;;4.95;100.00
12799;BME280;19250;42.646;26.980;2023-11-19T03:18:42;98391.34;;;4.91;100.00
12799;BME280;19250;42.646;26.980;2023-11-19T03:21:10;98388.69;;;4.72;100.00
12799;BME280;19250;42.646;26.980;2023-11-19T03:23:38;98395.34;;;4.66;100.00
12799;BME280;19250;42.646;26.980;2023-11-19T03:26:06;98405.09;;;4.85;100.00
12799;BME280;19250;42.646;26.980;2023-11-19T03:28:34;98379.19;;;4.50;100.00
12799;BME280;19250;42.646;26.980;2023-11-19T03:31:04;98409.59;;;4.45;100.00
12799;BME280;19250;42.646;26.980;2023-11-19T03:33:34;98404.19;;;4.46;100.00
12799;BME280;19250;42.646;26.980;2023-11-19T03:36:03;98416.63;;;4.93;100.00
12799;BME280;19250;42.646;26.980;2023-11-19T03:38:31;98408.44;;;4.68;100.00
12799;BME280;19250;42.646;26.980;2023-11-19T03:40:58;98416.97;;;4.51;100.00
12799;BME280;19250;42.646;26.980;2023-11-19T03:43:25;98399.94;;;4.74;100.00
12799;BME280;19250;42.646;26.980;2023-11-19T03:45:53;98417.91;;;4.80;100.00
12799;BME280;19250;42.646;26.980;2023-11-19T03:48:20;98412.88;;;4.77;100.00
12799;BME280;19250;42.646;26.980;2023-11-19T03:50:48;98417.56;;;4.64;100.00
12799;BME280;19250;42.646;26.980;2023-11-19T03:53:17;98418.16;;;4.77;100.00
12799;BME280;19250;42.646;26.980;2023-11-19T03:55:45;98417.41;;;4.56;100.00
12799;BME280;19250;42.646;26.980;2023-11-19T03:58:12;98427.56;;;4.60;100.00
12799;BME280;19250;42.646;26.980;2023-11-19T04:00:40;98433.41;;;4.64;100.00
12799;BME280;19250;42.646;26.980;2023-11-19T04:03:07;98444.84;;;4.74;100.00
12799;BME280;19250;42.646;26.980;2023-11-19T04:05:35;98441.47;;;4.72;100.00
12799;BME280;19250;42.646;26.980;2023-11-19T04:08:02;98447.97;;;4.49;100.00
12799;BME280;19250;42.646;26.980;2023-11-19T04:10:31;98452.28;;;4.59;100.00
12799;BME280;19250;42.646;26.980;2023-11-19T04:12:59;98451.03;;;4.54;100.00
12799;BME280;19250;42.646;26.980;2023-11-19T04:15:26;98450.69;;;4.87;100.00
12799;BME280;19250;42.646;26.980;2023-11-19T04:17:54;98466.94;;;4.73;100.00
12799;BME280;19250;42.646;26.980;2023-11-19T04:20:22;98464.28;;;4.73;100.00
12799;BME280;19250;42.646;26.980;2023-11-19T04:22:50;98458.75;;;4.85;100.00
12799;BME280;19250;42.646;26.980;2023-11-19T04:25:19;98480.19;;;4.92;100.00
12799;BME280;19250;42.646;26.980;2023-11-19T04:27:49;98475.00;;;4.81;100.00
12799;BME280;19250;42.646;26.980;2023-11-19T04:30:16;98474.63;;;5.14;100.00
12799;BME280;19250;42.646;26.980;2023-11-19T04:32:44;98460.81;;;4.72;100.00
12799;BME280;19250;42.646;26.980;2023-11-19T04:35:11;98479.03;;;4.75;100.00
12799;BME280;19250;42.646;26.980;2023-11-19T04:37:38;98489.94;;;5.01;100.00
12799;BME280;19250;42.646;26.980;2023-11-19T04:40:07;98487.09;;;4.74;100.00
12799;BME280;19250;42.646;26.980;2023-11-19T04:42:34;98499.50;;;4.83;100.00
12799;BME280;19250;42.646;26.980;2023-11-19T04:45:04;98501.88;;;5.05;100.00
12799;BME280;19250;42.646;26.980;2023-11-19T04:47:32;98489.31;;;4.78;100.00
12799;BME280;19250;42.646;26.980;2023-11-19T04:50:00;98487.97;;;4.93;100.00
12799;BME280;19250;42.646;26.980;2023-11-19T04:52:27;98487.97;;;5.03;100.00
12799;BME280;19250;42.646;26.980;2023-11-19T04:54:55;98504.22;;;4.99;100.00
12799;BME280;19250;42.646;26.980;2023-11-19T04:57:22;98355.25;;;4.23;100.00
12799;BME280;19250;42.646;26.980;2023-11-19T04:59:49;98472.94;;;4.84;100.00
12799;BME280;19250;42.646;26.980;2023-11-19T05:02:18;98485.56;;;4.81;100.00
12799;BME280;19250;42.646;26.980;2023-11-19T05:04:45;98498.16;;;4.58;100.00
12799;BME280;19250;42.646;26.980;2023-11-19T05:07:14;98487.63;;;4.68;100.00
12799;BME280;19250;42.646;26.980;2023-11-19T05:09:42;98497.78;;;4.72;100.00
12799;BME280;19250;42.646;26.980;2023-11-19T05:12:10;98495.97;;;4.73;100.00
12799;BME280;19250;42.646;26.980;2023-11-19T05:14:38;98505.13;;;4.69;100.00
12799;BME280;19250;42.646;26.980;2023-11-19T05:17:05;98509.50;;;4.89;100.00
12799;BME280;19250;42.646;26.980;2023-11-19T05:19:35;98513.25;;;4.96;100.00
12799;BME280;19250;42.646;26.980;2023-11-19T05:22:02;98524.94;;;4.93;100.00
12799;BME280;19250;42.646;26.980;2023-11-19T05:24:31;98519.94;;;5.00;100.00
12799;BME280;19250;42.646;26.980;2023-11-19T05:27:00;98529.56;;;5.11;100.00
12799;BME280;19250;42.646;26.980;2023-11-19T05:29:27;98518.28;;;4.99;100.00
12799;BME280;19250;42.646;26.980;2023-11-19T05:31:55;98532.47;;;4.98;100.00
12799;BME280;19250;42.646;26.980;2023-11-19T05:34:22;98544.97;;;4.96;100.00
12799;BME280;19250;42.646;26.980;2023-11-19T05:36:52;98539.47;;;5.28;100.00
12799;BME280;19250;42.646;26.980;2023-11-19T05:39:19;98546.28;;;5.30;100.00
12799;BME280;19250;42.646;26.980;2023-11-19T05:41:47;98539.91;;;5.42;100.00
12799;BME280;19250;42.646;26.980;2023-11-19T05:44:14;98550.91;;;5.47;100.00
12799;BME280;19250;42.646;26.980;2023-11-19T05:46:42;98554.53;;;5.66;100.00
12799;BME280;19250;42.646;26.980;2023-11-19T05:49:10;98557.03;;;5.58;100.00
12799;BME280;19250;42.646;26.980;2023-11-19T05:51:39;98553.13;;;5.52;100.00
12799;BME280;19250;42.646;26.980;2023-11-19T05:54:08;98559.94;;;5.35;100.00
12799;BME280;19250;42.646;26.980;2023-11-19T05:56:36;98553.91;;;5.14;100.00
12799;BME280;19250;42.646;26.980;2023-11-19T05:59:04;98551.41;;;5.13;100.00
12799;BME280;19250;42.646;26.980;2023-11-19T06:01:33;98558.34;;;5.14;100.00
12799;BME280;19250;42.646;26.980;2023-11-19T06:04:01;98558.22;;;5.15;100.00
12799;BME280;19250;42.646;26.980;2023-11-19T06:06:29;98553.25;;;5.22;100.00
12799;BME280;19250;42.646;26.980;2023-11-19T06:08:57;98567.84;;;5.35;100.00
12799;BME280;19250;42.646;26.980;2023-11-19T06:11:25;98565.34;;;5.24;100.00
12799;BME280;19250;42.646;26.980;2023-11-19T06:13:53;98568.56;;;5.37;100.00
12799;BME280;19250;42.646;26.980;2023-11-19T06:16:20;98560.19;;;5.32;100.00
12799;BME280;19250;42.646;26.980;2023-11-19T06:18:48;98566.19;;;5.25;100.00
12799;BME280;19250;42.646;26.980;2023-11-19T06:21:15;98568.69;;;5.36;100.00
12799;BME280;19250;42.646;26.980;2023-11-19T06:23:43;98583.19;;;5.51;100.00
12799;BME280;19250;42.646;26.980;2023-11-19T06:26:10;98583.34;;;5.49;100.00
12799;BME280;19250;42.646;26.980;2023-11-19T06:28:39;98585.28;;;5.57;100.00
12799;BME280;19250;42.646;26.980;2023-11-19T06:31:06;98582.91;;;5.44;100.00
12799;BME280;19250;42.646;26.980;2023-11-19T06:33:34;98600.16;;;5.39;100.00
12799;BME280;19250;42.646;26.980;2023-11-19T06:36:01;98594.88;;;5.48;100.00
12799;BME280;19250;42.646;26.980;2023-11-19T06:38:28;98593.47;;;5.35;100.00
12799;BME280;19250;42.646;26.980;2023-11-19T06:40:56;98620.09;;;5.53;100.00
12799;BME280;19250;42.646;26.980;2023-11-19T06:43:23;98618.84;;;5.66;100.00
12799;BME280;19250;42.646;26.980;2023-11-19T06:45:53;98620.56;;;5.86;100.00
12799;BME280;19250;42.646;26.980;2023-11-19T06:48:20;98634.03;;;5.74;100.00
12799;BME280;19250;42.646;26.980;2023-11-19T06:50:48;98629.16;;;5.79;100.00
12799;BME280;19250;42.646;26.980;2023-11-19T06:53:15;98621.34;;;5.68;100.00
12799;BME280;19250;42.646;26.980;2023-11-19T06:55:43;98643.41;;;5.97;100.00
12799;BME280;19250;42.646;26.980;2023-11-19T06:58:10;98650.94;;;5.92;100.00
12799;BME280;19250;42.646;26.980;2023-11-19T07:00:38;98650.09;;;6.20;100.00
12799;BME280;19250;42.646;26.980;2023-11-19T07:03:06;98658.88;;;6.01;100.00
12799;BME280;19250;42.646;26.980;2023-11-19T07:05:36;98655.66;;;5.98;100.00
12799;BME280;19250;42.646;26.980;2023-11-19T07:08:06;98608.56;;;5.82;100.00
12799;BME280;19250;42.646;26.980;2023-11-19T07:10:34;98674.34;;;6.16;100.00
12799;BME280;19250;42.646;26.980;2023-11-19T07:13:01;98661.78;;;6.18;100.00
12799;BME280;19250;42.646;26.980;2023-11-19T07:15:30;98664.88;;;6.32;100.00
12799;BME280;19250;42.646;26.980;2023-11-19T07:17:58;98663.47;;;6.28;100.00
12799;BME280;19250;42.646;26.980;2023-11-19T07:20:27;98668.47;;;6.31;100.00
12799;BME280;19250;42.646;26.980;2023-11-19T07:22:54;98679.34;;;6.28;100.00
12799;BME280;19250;42.646;26.980;2023-11-19T07:25:22;98679.34;;;6.38;100.00
12799;BME280;19250;42.646;26.980;2023-11-19T07:27:51;98683.94;;;6.07;100.00
12799;BME280;19250;42.646;26.980;2023-11-19T07:30:19;98686.06;;;6.42;100.00
12799;BME280;19250;42.646;26.980;2023-11-19T07:32:47;98691.91;;;6.36;100.00
12799;BME280;19250;42.646;26.980;2023-11-19T07:35:14;98693.00;;;6.33;100.00
12799;BME280;19250;42.646;26.980;2023-11-19T07:37:43;98690.09;;;6.27;100.00
12799;BME280;19250;42.646;26.980;2023-11-19T07:40:12;98688.81;;;6.21;100.00
12799;BME280;19250;42.646;26.980;2023-11-19T07:42:42;98693.72;;;6.35;100.00
12799;BME280;19250;42.646;26.980;2023-11-19T07:45:10;98704.69;;;6.21;100.00
12799;BME280;19250;42.646;26.980;2023-11-19T07:47:37;98703.47;;;6.44;100.00
12799;BME280;19250;42.646;26.980;2023-11-19T07:50:06;98698.28;;;6.52;100.00
12799;BME280;19250;42.646;26.980;2023-11-19T07:52:33;98710.28;;;6.56;100.00
12799;BME280;19250;42.646;26.980;2023-11-19T07:55:02;98711.53;;;6.52;100.00
12799;BME280;19250;42.646;26.980;2023-11-19T07:57:31;98682.00;;;6.09;100.00
12799;BME280;19250;42.646;26.980;2023-11-19T07:59:58;98722.53;;;6.57;100.00
12799;BME280;19250;42.646;26.980;2023-11-19T08:02:27;98717.50;;;6.64;100.00
12799;BME280;19250;42.646;26.980;2023-11-19T08:04:54;98718.91;;;6.87;100.00
12799;BME280;19250;42.646;26.980;2023-11-19T08:07:22;98728.25;;;6.82;100.00
12799;BME280;19250;42.646;26.980;2023-11-19T08:09:49;98734.44;;;7.09;100.00
12799;BME280;19250;42.646;26.980;2023-11-19T08:12:18;98737.66;;;7.13;100.00
12799;BME280;19250;42.646;26.980;2023-11-19T08:14:45;98738.75;;;7.66;100.00
12799;BME280;19250;42.646;26.980;2023-11-19T08:17:13;98737.63;;;8.14;100.00
12799;BME280;19250;42.646;26.980;2023-11-19T08:19:40;98741.28;;;8.13;100.00
12799;BME280;19250;42.646;26.980;2023-11-19T08:22:07;98741.72;;;8.26;100.00
12799;BME280;19250;42.646;26.980;2023-11-19T08:24:35;98761.00;;;8.73;100.00
12799;BME280;19250;42.646;26.980;2023-11-19T08:27:03;98749.84;;;8.52;100.00
12799;BME280;19250;42.646;26.980;2023-11-19T08:29:32;98752.28;;;9.06;100.00
12799;BME280;19250;42.646;26.980;2023-11-19T08:32:00;98771.16;;;9.21;100.00
12799;BME280;19250;42.646;26.980;2023-11-19T08:34:29;98762.91;;;8.81;100.00
12799;BME280;19250;42.646;26.980;2023-11-19T08:36:56;98767.28;;;8.90;100.00
12799;BME280;19250;42.646;26.980;2023-11-19T08:39:24;98766.06;;;9.02;100.00
12799;BME280;19250;42.646;26.980;2023-11-19T08:41:51;98773.94;;;8.94;100.00
12799;BME280;19250;42.646;26.980;2023-11-19T08:44:18;98774.44;;;9.15;100.00
12799;BME280;19250;42.646;26.980;2023-11-19T08:46:48;98787.03;;;9.05;100.00
12799;BME280;19250;42.646;26.980;2023-11-19T08:49:16;98755.50;;;8.74;100.00
12799;BME280;19250;42.646;26.980;2023-11-19T08:51:43;98790.75;;;8.77;100.00
12799;BME280;19250;42.646;26.980;2023-11-19T08:54:11;98781.19;;;8.66;100.00
12799;BME280;19250;42.646;26.980;2023-11-19T08:56:39;98792.56;;;8.41;100.00
12799;BME280;19250;42.646;26.980;2023-11-19T08:59:07;98795.75;;;8.44;100.00
12799;BME280;19250;42.646;26.980;2023-11-19T09:01:34;98803.56;;;8.28;100.00
12799;BME280;19250;42.646;26.980;2023-11-19T09:04:03;98793.59;;;8.03;100.00
12799;BME280;19250;42.646;26.980;2023-11-19T09:06:32;98797.72;;;8.15;100.00
12799;BME280;19250;42.646;26.980;2023-11-19T09:08:59;98803.03;;;8.60;98.44
12799;BME280;19250;42.646;26.980;2023-11-19T09:11:28;98799.47;;;9.48;93.79
12799;BME280;19250;42.646;26.980;2023-11-19T09:13:55;98809.34;;;10.15;84.08
12799;BME280;19250;42.646;26.980;2023-11-19T09:16:23;98812.00;;;10.89;76.79
12799;BME280;19250;42.646;26.980;2023-11-19T09:18:51;98803.91;;;11.94;65.34
12799;BME280;19250;42.646;26.980;2023-11-19T09:21:20;98801.28;;;13.32;56.26
12799;BME280;19250;42.646;26.980;2023-11-19T09:23:49;98801.47;;;14.62;49.40
12799;BME280;19250;42.646;26.980;2023-11-19T09:26:16;98805.88;;;14.48;48.42
12799;BME280;19250;42.646;26.980;2023-11-19T09:28:44;98785.75;;;14.74;46.65
12799;BME280;19250;42.646;26.980;2023-11-19T09:31:14;98786.50;;;15.10;46.36
12799;BME280;19250;42.646;26.980;2023-11-19T09:33:41;98786.88;;;15.49;44.50
12799;BME280;19250;42.646;26.980;2023-11-19T09:36:10;98782.81;;;16.28;43.37
12799;BME280;19250;42.646;26.980;2023-11-19T09:38:41;98792.63;;;17.23;41.85
12799;BME280;19250;42.646;26.980;2023-11-19T09:41:09;98778.69;;;16.39;41.91
12799;BME280;19250;42.646;26.980;2023-11-19T09:43:39;98777.81;;;15.57;44.00
12799;BME280;19250;42.646;26.980;2023-11-19T09:46:09;98774.25;;;14.80;45.39
12799;BME280;19250;42.646;26.980;2023-11-19T09:48:38;98770.00;;;14.35;45.63
12799;BME280;19250;42.646;26.980;2023-11-19T09:51:06;98763.84;;;13.76;46.89
12799;BME280;19250;42.646;26.980;2023-11-19T09:53:34;98767.16;;;13.11;48.50
12799;BME280;19250;42.646;26.980;2023-11-19T09:56:05;98776.31;;;13.54;48.48
12799;BME280;19250;42.646;26.980;2023-11-19T09:58:34;98770.63;;;13.49;49.12
12799;BME280;19250;42.646;26.980;2023-11-19T10:01:02;98693.22;;;13.10;48.91
12799;BME280;19250;42.646;26.980;2023-11-19T10:03:33;98762.34;;;13.73;49.28
12799;BME280;19250;42.646;26.980;2023-11-19T10:06:04;98753.94;;;14.05;48.46
12799;BME280;19250;42.646;26.980;2023-11-19T10:08:33;98763.28;;;13.95;48.21
12799;BME280;19250;42.646;26.980;2023-11-19T10:11:00;98757.94;;;13.66;49.72
12799;BME280;19250;42.646;26.980;2023-11-19T10:13:29;98768.91;;;14.65;46.89
12799;BME280;19250;42.646;26.980;2023-11-19T10:15:57;98777.88;;;14.22;46.34
12799;BME280;19250;42.646;26.980;2023-11-19T10:18:25;98775.31;;;13.70;47.45
12799;BME280;19250;42.646;26.980;2023-11-19T10:20:53;98780.81;;;13.53;48.34
12799;BME280;19250;42.646;26.980;2023-11-19T10:23:21;98777.41;;;14.33;47.80
12799;BME280;19250;42.646;26.980;2023-11-19T10:25:48;98773.13;;;14.95;45.73
12799;BME280;19250;42.646;26.980;2023-11-19T10:28:20;98782.63;;;15.40;44.19
12799;BME280;19250;42.646;26.980;2023-11-19T10:30:49;98716.72;;;15.72;42.92
12799;BME280;19250;42.646;26.980;2023-11-19T10:33:16;98790.69;;;15.61;42.98
12799;BME280;19250;42.646;26.980;2023-11-19T10:35:52;98798.47;;;15.07;44.48
12799;BME280;19250;42.646;26.980;2023-11-19T10:38:20;98783.00;;;15.86;43.32
12799;BME280;19250;42.646;26.980;2023-11-19T10:40:48;98782.84;;;17.02;40.01
12799;BME280;19250;42.646;26.980;2023-11-19T10:43:16;98779.03;;;16.64;40.72
12799;BME280;19250;42.646;26.980;2023-11-19T10:45:44;98778.94;;;17.24;40.50
12799;BME280;19250;42.646;26.980;2023-11-19T10:48:13;98774.19;;;17.33;39.24
12799;BME280;19250;42.646;26.980;2023-11-19T10:50:41;98768.38;;;17.56;38.37
12799;BME280;19250;42.646;26.980;2023-11-19T10:53:10;98760.47;;;17.02;38.27
12799;BME280;19250;42.646;26.980;2023-11-19T10:55:39;98735.13;;;16.70;39.38
12799;BME280;19250;42.646;26.980;2023-11-19T10:58:07;98699.53;;;17.01;37.23
12799;BME280;19250;42.646;26.980;2023-11-19T11:00:38;98746.59;;;17.37;37.71
12799;BME280;19250;42.646;26.980;2023-11-19T11:03:11;98736.44;;;17.13;37.92
12799;BME280;19250;42.646;26.980;2023-11-19T11:05:46;98740.38;;;17.43;37.09
12799;BME280;19250;42.646;26.980;2023-11-19T11:08:14;98730.84;;;17.67;37.11
12799;BME280;19250;42.646;26.980;2023-11-19T11:10:44;98705.25;;;17.89;36.09
12799;BME280;19250;42.646;26.980;2023-11-19T11:13:14;98723.13;;;17.71;35.62
12799;BME280;19250;42.646;26.980;2023-11-19T11:15:41;98724.19;;;17.50;35.67
12799;BME280;19250;42.646;26.980;2023-11-19T11:18:09;98721.09;;;17.20;36.77
12799;BME280;19250;42.646;26.980;2023-11-19T11:20:37;98677.56;;;17.04;36.41
12799;BME280;19250;42.646;26.980;2023-11-19T11:29:23;98701.81;;;17.10;35.86
12799;BME280;19250;42.646;26.980;2023-11-19T11:31:57;98701.63;;;16.99;35.88
12799;BME280;19250;42.646;26.980;2023-11-19T11:34:47;98697.28;;;17.30;35.37
12799;BME280;19250;42.646;26.980;2023-11-19T11:37:26;98705.81;;;18.05;34.06
12799;BME280;19250;42.646;26.980;2023-11-19T11:39:58;98693.75;;;18.07;34.35
12799;BME280;19250;42.646;26.980;2023-11-19T11:42:37;98700.69;;;17.90;34.48
12799;BME280;19250;42.646;26.980;2023-11-19T11:45:07;98658.84;;;18.57;34.02
12799;BME280;19250;42.646;26.980;2023-11-19T11:48:06;98618.75;;;17.84;33.55
12799;BME280;19250;42.646;26.980;2023-11-19T11:50:48;98681.88;;;18.90;33.45
12799;BME280;19250;42.646;26.980;2023-11-19T11:53:16;98703.69;;;18.95;32.47
12799;BME280;19250;42.646;26.980;2023-11-19T11:55:55;98648.44;;;17.84;32.87
12799;BME280;19250;42.646;26.980;2023-11-19T11:58:31;98693.63;;;17.89;33.88
12799;BME280;19250;42.646;26.980;2023-11-19T12:01:01;98677.94;;;17.73;33.98
12799;BME280;19250;42.646;26.980;2023-11-19T12:03:32;98696.06;;;18.10;34.13
12799;BME280;19250;42.646;26.980;2023-11-19T12:06:00;98682.94;;;18.14;33.82
12799;BME280;19250;42.646;26.980;2023-11-19T12:08:28;98681.19;;;17.94;33.70
12799;BME280;19250;42.646;26.980;2023-11-19T12:10:58;98682.09;;;17.56;34.63
12799;BME280;19250;42.646;26.980;2023-11-19T12:13:46;98674.47;;;17.20;34.57
12799;BME280;19250;42.646;26.980;2023-11-19T12:16:14;98689.50;;;17.80;34.37
12799;BME280;19250;42.646;26.980;2023-11-19T12:18:42;98684.94;;;17.80;33.97
12799;BME280;19250;42.646;26.980;2023-11-19T12:21:09;98659.16;;;18.35;33.61
12799;BME280;19250;42.646;26.980;2023-11-19T12:23:45;98676.94;;;18.56;34.12
12799;BME280;19250;42.646;26.980;2023-11-19T12:26:34;98673.94;;;18.33;33.33
12799;BME280;19250;42.646;26.980;2023-11-19T12:29:03;98670.13;;;18.03;34.28
12799;BME280;19250;42.646;26.980;2023-11-19T12:31:32;98631.94;;;17.61;34.34
12799;BME280;19250;42.646;26.980;2023-11-19T12:34:06;98670.19;;;17.83;34.88
12799;BME280;19250;42.646;26.980;2023-11-19T12:36:38;98679.59;;;18.25;34.52
12799;BME280;19250;42.646;26.980;2023-11-19T12:39:07;98648.38;;;18.35;34.57
12799;BME280;19250;42.646;26.980;2023-11-19T12:41:52;98684.88;;;18.51;34.44
12799;BME280;19250;42.646;26.980;2023-11-19T12:44:22;98682.63;;;18.35;34.18
12799;BME280;19250;42.646;26.980;2023-11-19T12:47:02;98700.56;;;17.59;35.93
12799;BME280;19250;42.646;26.980;2023-11-19T12:49:31;98714.66;;;17.28;35.54
12799;BME280;19250;42.646;26.980;2023-11-19T12:51:59;98726.91;;;17.17;36.11
12799;BME280;19250;42.646;26.980;2023-11-19T12:54:34;98742.84;;;17.78;35.89
12799;BME280;19250;42.646;26.980;2023-11-19T12:57:02;98738.31;;;19.05;34.54
12799;BME280;19250;42.646;26.980;2023-11-19T12:59:32;98727.41;;;18.62;33.70
12799;BME280;19250;42.646;26.980;2023-11-19T13:02:00;98730.19;;;18.80;34.10
12799;BME280;19250;42.646;26.980;2023-11-19T13:04:29;98755.88;;;19.21;34.09